aviador You're here:

KFTY Decoded Metar

ATLANTA/FULTON in GA, USA
Report Time2017-12-16 23:53:00
UTC Time2017-12-17 00:35:01
Flight Rules vfr VFR
WindCalm
Visibility9999 m
Phenomena:N/A
Clouds:N/A
Expected CloudBase > 2,000 ft AGL from Temp-Dew spread
CeilingNone
Temp04°C (ISA -9)
Dew Point-1°C (70% RH)
AAT1.9°C
QNH1025 hPa
Density Alt-584 ft
Elevation863 ft
Report Wrong Elevation
Raw Report
METAR KFTY 162353Z 00000KT 10SM CLR 04/M01 A3026 RMK AO2 SLP251 T00441011
10111 20044 53006=

Extra information for KFTY:More info

Metar Taf Metar & Taf Last 4 Metars F.Rules Stats Wind Profile Meteogram Temp Stats Airport Information Weather charts Add Link Nearby VenuesMetar ALERT Operation Metar Decoded Social comments

AIRNAV info for KFTY